Time;durP1;ratioP1;P1;durP2;ratioP2;P2;SDS_P1;SDS_P2;PMS_P1;PMS_P2;Temp;Humidity;BMP_temperature;BMP_pressure;BME280_temperature;BME280_humidity;BME280_pressure;Samples;Min_cycle;Max_cycle;Signal;HPM_P1;HPM_P2
2024/04/02 00:00:35;;;;;;;3.73;1.90;;;10.50;99.90;;;;;;5078153;28;20305;-72
2024/04/02 00:03:04;;;;;;;3.50;1.60;;;10.50;99.90;;;;;;5089053;28;20207;-72
2024/04/02 00:05:31;;;;;;;1.70;1.57;;;10.50;99.90;;;;;;5089157;28;20244;-72
2024/04/02 00:07:57;;;;;;;1.53;1.47;;;10.50;99.90;;;;;;5085834;28;20203;-72
2024/04/02 00:10:24;;;;;;;2.53;1.37;;;10.50;99.90;;;;;;5088993;28;20263;-72
2024/04/02 00:12:49;;;;;;;1.37;1.37;;;10.60;99.90;;;;;;5078902;28;20207;-72
2024/04/02 00:15:16;;;;;;;1.20;1.20;;;10.70;99.90;;;;;;5068270;28;20258;-73
2024/04/02 00:17:44;;;;;;;1.33;1.23;;;10.70;99.90;;;;;;5074287;28;20605;-73
2024/04/02 00:20:12;;;;;;;4.97;1.83;;;10.80;99.90;;;;;;5088506;28;20209;-73
2024/04/02 00:22:40;;;;;;;2.83;1.03;;;10.80;99.90;;;;;;5088359;28;20571;-73
2024/04/02 00:25:07;;;;;;;1.53;0.83;;;10.90;99.90;;;;;;5088404;28;20235;-73
2024/04/02 00:27:33;;;;;;;0.93;0.93;;;10.90;99.90;;;;;;5082419;28;20318;-73
2024/04/02 00:30:00;;;;;;;1.30;1.20;;;11.00;99.90;;;;;;5070507;28;20680;-73
2024/04/02 00:32:26;;;;;;;1.30;1.20;;;11.00;99.90;;;;;;5075023;28;20282;-73
2024/04/02 00:34:53;;;;;;;3.50;1.70;;;11.00;99.90;;;;;;5088702;28;20302;-73
2024/04/02 00:37:20;;;;;;;1.93;1.60;;;11.00;99.90;;;;;;5072522;28;20208;-74
2024/04/02 00:39:48;;;;;;;2.27;1.80;;;11.10;99.90;;;;;;5072791;28;20780;-74
2024/04/02 00:42:14;;;;;;;2.27;1.70;;;11.10;99.90;;;;;;5087446;28;20293;-73
2024/04/02 00:44:40;;;;;;;2.87;1.90;;;11.10;99.90;;;;;;5088121;28;20209;-74
2024/04/02 00:47:08;;;;;;;2.10;2.00;;;11.10;99.90;;;;;;5080556;28;20286;-74
2024/04/02 00:49:36;;;;;;;2.43;2.23;;;11.00;99.90;;;;;;5068142;28;20568;-75
2024/04/02 00:52:03;;;;;;;2.20;2.10;;;11.00;99.90;;;;;;5067910;28;20286;-74
2024/04/02 00:54:32;;;;;;;2.33;2.17;;;11.10;99.90;;;;;;5076446;28;20210;-76
2024/04/02 00:56:58;;;;;;;1.97;1.87;;;11.00;99.90;;;;;;5074871;28;20294;-74
2024/04/02 00:59:25;;;;;;;2.50;2.40;;;11.00;99.90;;;;;;5068203;28;20287;-74
2024/04/02 01:01:51;;;;;;;2.17;2.00;;;11.00;99.90;;;;;;5067568;28;20207;-74
2024/04/02 01:04:18;;;;;;;2.30;2.00;;;11.00;99.90;;;;;;5067733;28;20207;-74
2024/04/02 01:06:45;;;;;;;2.10;2.00;;;10.90;99.90;;;;;;5067828;28;20737;-74
2024/04/02 01:09:12;;;;;;;2.50;2.30;;;10.90;99.90;;;;;;5084765;28;20237;-74
2024/04/02 01:11:40;;;;;;;2.43;2.23;;;10.80;99.90;;;;;;5087693;28;20216;-74
2024/04/02 01:14:07;;;;;;;2.43;2.20;;;10.80;99.90;;;;;;5070795;28;20239;-74
2024/04/02 01:16:40;;;;;;;2.10;2.00;;;10.80;99.90;;;;;;5067781;28;20215;-74
2024/04/02 01:19:07;;;;;;;1.93;1.83;;;10.80;99.90;;;;;;5085015;28;20687;-74
2024/04/02 01:21:33;;;;;;;2.00;1.80;;;10.70;99.90;;;;;;5087511;28;20662;-74
2024/04/02 01:23:59;;;;;;;1.90;1.80;;;10.70;99.90;;;;;;5087911;28;20234;-74
2024/04/02 01:26:27;;;;;;;3.03;1.97;;;10.70;99.90;;;;;;5074965;28;20819;-74
2024/04/02 01:28:58;;;;;;;1.83;1.73;;;10.60;99.90;;;;;;5079389;28;20230;-74
2024/04/02 01:31:24;;;;;;;1.87;1.70;;;10.60;99.90;;;;;;5068470;28;20290;-74
2024/04/02 01:33:51;;;;;;;1.93;1.83;;;10.60;99.90;;;;;;5067460;28;20203;-75
2024/04/02 01:36:17;;;;;;;1.90;1.73;;;10.50;99.90;;;;;;5074923;28;20297;-75
2024/04/02 01:38:44;;;;;;;1.50;1.40;;;10.50;99.90;;;;;;5087835;28;20322;-75
2024/04/02 01:41:10;;;;;;;1.83;1.50;;;10.50;99.90;;;;;;5067503;28;20261;-75
2024/04/02 01:43:38;;;;;;;1.87;1.77;;;10.50;99.90;;;;;;5083444;28;20202;-75
2024/04/02 01:46:04;;;;;;;1.60;1.60;;;10.40;99.90;;;;;;5087667;28;20261;-75
2024/04/02 01:48:31;;;;;;;7.77;1.77;;;10.40;99.90;;;;;;5087670;28;20223;-75
2024/04/02 01:50:57;;;;;;;1.83;1.50;;;10.30;99.90;;;;;;5086958;28;20286;-74
2024/04/02 01:53:24;;;;;;;3.37;1.70;;;10.40;99.90;;;;;;5071490;28;20788;-75
2024/04/02 01:55:50;;;;;;;1.60;1.50;;;10.30;99.90;;;;;;5068286;28;20262;-73
2024/04/02 01:58:17;;;;;;;1.83;1.73;;;10.30;99.90;;;;;;5071676;28;20736;-73
2024/04/02 02:00:45;;;;;;;1.43;1.33;;;10.20;99.90;;;;;;5067155;28;20323;-74
2024/04/02 02:03:12;;;;;;;1.40;1.30;;;10.10;99.90;;;;;;5066566;28;20666;-74
2024/04/02 02:05:38;;;;;;;2.20;1.40;;;10.10;99.90;;;;;;5066927;28;20631;-74
2024/04/02 02:08:07;;;;;;;2.23;1.40;;;10.10;99.90;;;;;;5066736;28;20212;-73
2024/04/02 02:10:33;;;;;;;2.53;1.30;;;10.10;99.90;;;;;;5066969;28;20204;-74
2024/04/02 02:13:00;;;;;;;1.10;1.10;;;10.20;99.90;;;;;;5068241;28;20290;-74
2024/04/02 02:15:26;;;;;;;1.53;1.30;;;10.10;99.90;;;;;;5066954;28;20460;-73
2024/04/02 02:17:54;;;;;;;1.57;1.40;;;10.20;99.90;;;;;;5067110;28;20557;-72
2024/04/02 02:20:20;;;;;;;1.33;1.20;;;10.10;99.90;;;;;;5066383;28;20302;-76
2024/04/02 02:22:47;;;;;;;1.37;1.37;;;10.00;99.90;;;;;;5066417;28;20310;-73
2024/04/02 02:25:13;;;;;;;0.97;0.90;;;10.00;99.90;;;;;;5066657;28;20318;-73
2024/04/02 02:27:40;;;;;;;1.20;1.10;;;10.10;99.90;;;;;;5067341;28;20757;-72
2024/04/02 02:30:07;;;;;;;1.30;1.20;;;10.00;99.90;;;;;;5082002;28;20238;-73
2024/04/02 02:32:34;;;;;;;1.10;1.00;;;9.90;99.90;;;;;;5092623;28;20320;-73
2024/04/02 02:35:02;;;;;;;0.90;0.90;;;10.00;99.90;;;;;;5076827;28;20207;-73
2024/04/02 02:37:29;;;;;;;0.90;0.90;;;9.90;99.90;;;;;;5092990;28;20736;-73
2024/04/02 02:39:56;;;;;;;1.30;1.20;;;9.90;99.90;;;;;;5093057;28;20296;-73
2024/04/02 02:42:23;;;;;;;0.90;0.90;;;9.80;99.90;;;;;;5098065;28;20593;-73
2024/04/02 02:44:49;;;;;;;1.10;1.10;;;9.90;99.90;;;;;;5088126;28;20211;-73
2024/04/02 02:47:16;;;;;;;2.20;1.13;;;9.80;99.90;;;;;;5078775;28;20388;-73
2024/04/02 02:49:42;;;;;;;1.80;1.40;;;9.80;99.90;;;;;;5086323;28;20231;-73
2024/04/02 02:52:10;;;;;;;1.43;1.10;;;9.80;99.90;;;;;;5069901;28;20218;-73
2024/04/02 02:54:36;;;;;;;0.90;0.90;;;9.80;99.90;;;;;;5070142;28;20299;-73
2024/04/02 02:57:03;;;;;;;0.97;0.97;;;9.80;99.90;;;;;;5083396;28;20291;-73
2024/04/02 02:59:29;;;;;;;0.90;0.90;;;9.80;99.90;;;;;;5089850;28;20253;-73
2024/04/02 03:01:56;;;;;;;0.90;0.90;;;9.80;99.90;;;;;;5088885;28;20251;-73
2024/04/02 03:04:22;;;;;;;1.77;1.10;;;9.80;99.90;;;;;;5089030;28;20744;-72
2024/04/02 03:06:49;;;;;;;1.13;1.00;;;9.90;99.90;;;;;;5088692;28;20293;-72
2024/04/02 03:09:16;;;;;;;1.03;0.90;;;9.80;99.90;;;;;;5089302;28;20746;-72
2024/04/02 03:11:43;;;;;;;1.00;1.00;;;9.80;99.90;;;;;;5089983;28;20214;-72
2024/04/02 03:14:09;;;;;;;0.80;0.80;;;9.90;99.90;;;;;;5089627;28;20270;-72
2024/04/02 03:16:36;;;;;;;1.10;1.10;;;9.80;99.90;;;;;;5090189;28;20207;-72
2024/04/02 03:19:03;;;;;;;1.03;1.03;;;9.80;99.90;;;;;;5090106;28;20294;-72
2024/04/02 03:21:28;;;;;;;1.33;1.10;;;9.70;99.90;;;;;;5089711;28;20245;-72
2024/04/02 03:23:56;;;;;;;0.83;0.83;;;9.80;99.90;;;;;;5089944;28;20243;-72
2024/04/02 03:26:24;;;;;;;4.07;1.23;;;9.70;99.90;;;;;;5090093;28;20289;-72
2024/04/02 03:28:51;;;;;;;1.60;1.10;;;9.70;99.90;;;;;;5089449;28;20582;-72
2024/04/02 03:31:17;;;;;;;1.10;1.00;;;9.60;99.90;;;;;;5089257;28;20206;-72
2024/04/02 03:33:44;;;;;;;1.90;0.97;;;9.70;99.90;;;;;;5089564;28;20211;-72
2024/04/02 03:36:10;;;;;;;1.50;1.30;;;9.60;99.90;;;;;;5084208;28;20200;-72
2024/04/02 03:38:37;;;;;;;2.47;1.40;;;9.60;99.90;;;;;;5069351;28;20218;-72
2024/04/02 03:41:08;;;;;;;1.90;1.30;;;9.70;99.90;;;;;;5069213;28;20629;-72
2024/04/02 03:43:36;;;;;;;0.87;0.87;;;9.60;99.90;;;;;;5070793;28;20207;-73
2024/04/02 03:46:02;;;;;;;1.27;1.17;;;9.70;99.90;;;;;;5083200;28;20620;-72
2024/04/02 03:48:29;;;;;;;1.13;1.07;;;9.70;99.90;;;;;;5089306;28;20209;-72
2024/04/02 03:50:55;;;;;;;1.83;1.63;;;9.70;99.90;;;;;;5089227;28;20310;-72
2024/04/02 03:53:22;;;;;;;1.93;1.30;;;9.80;99.90;;;;;;5089176;28;20210;-72
2024/04/02 03:55:48;;;;;;;1.33;1.30;;;9.80;99.90;;;;;;5089409;28;20309;-72
2024/04/02 03:58:15;;;;;;;1.77;1.40;;;9.80;99.90;;;;;;5089224;28;20309;-72
2024/04/02 04:00:43;;;;;;;1.50;1.40;;;9.80;99.90;;;;;;5081762;28;20745;-72
2024/04/02 04:03:10;;;;;;;2.10;1.30;;;9.80;99.90;;;;;;5068539;28;20579;-72
2024/04/02 04:05:36;;;;;;;2.30;1.70;;;9.80;99.90;;;;;;5068740;28;20250;-72
2024/04/02 04:08:04;;;;;;;1.73;1.63;;;9.70;99.90;;;;;;5068422;28;20238;-72
2024/04/02 04:10:29;;;;;;;1.60;1.50;;;9.80;99.90;;;;;;5068750;28;20262;-72
2024/04/02 04:12:56;;;;;;;1.80;1.70;;;9.70;99.90;;;;;;5068333;28;20300;-72
2024/04/02 04:15:22;;;;;;;1.90;1.80;;;9.80;99.90;;;;;;5068455;28;20326;-72
2024/04/02 04:17:50;;;;;;;2.37;1.83;;;9.70;99.90;;;;;;5068749;28;20290;-72
2024/04/02 04:20:16;;;;;;;1.70;1.53;;;9.70;99.90;;;;;;5068720;28;20298;-72
2024/04/02 04:22:43;;;;;;;2.03;1.93;;;9.70;99.90;;;;;;5068221;28;20757;-72
2024/04/02 04:25:09;;;;;;;1.90;1.80;;;9.70;99.90;;;;;;5076387;28;20646;-72
2024/04/02 04:27:37;;;;;;;2.23;2.10;;;9.70;99.90;;;;;;5088709;28;20254;-72
2024/04/02 04:30:05;;;;;;;2.00;1.90;;;9.70;99.90;;;;;;5086389;28;20234;-72
2024/04/02 04:32:31;;;;;;;2.07;1.97;;;9.70;99.90;;;;;;5068483;28;20265;-72
2024/04/02 04:34:59;;;;;;;3.67;1.80;;;9.60;99.90;;;;;;5068253;28;20292;-72
2024/04/02 04:37:26;;;;;;;1.63;1.53;;;9.70;99.90;;;;;;5067982;28;20247;-72
2024/04/02 04:39:52;;;;;;;2.40;2.30;;;9.70;99.90;;;;;;5070445;28;20721;-72
2024/04/02 04:42:19;;;;;;;4.80;2.20;;;9.80;99.90;;;;;;5081303;28;20206;-72
2024/04/02 04:44:45;;;;;;;2.00;1.90;;;9.80;99.90;;;;;;5088688;28;20213;-72
2024/04/02 04:47:12;;;;;;;2.20;2.00;;;9.80;99.90;;;;;;5088440;28;20210;-72
2024/04/02 04:49:39;;;;;;;2.10;2.00;;;9.90;99.90;;;;;;5081875;28;20774;-72
2024/04/02 04:52:07;;;;;;;2.07;1.97;;;9.90;99.90;;;;;;5065621;28;20231;-73
2024/04/02 04:54:34;;;;;;;2.30;2.20;;;9.90;99.90;;;;;;5067452;28;20207;-72
2024/04/02 04:57:00;;;;;;;5.17;2.40;;;9.90;99.90;;;;;;5067712;28;20811;-72
2024/04/02 04:59:27;;;;;;;2.50;2.40;;;9.90;99.90;;;;;;5067967;28;20289;-72
2024/04/02 05:01:53;;;;;;;2.43;2.23;;;9.90;99.90;;;;;;5067909;28;20211;-72
2024/04/02 05:04:20;;;;;;;3.27;2.20;;;9.80;99.90;;;;;;5067479;28;20218;-72
2024/04/02 05:06:47;;;;;;;2.60;2.40;;;9.80;99.90;;;;;;5067423;28;20314;-73
2024/04/02 05:09:15;;;;;;;2.67;2.57;;;9.80;99.90;;;;;;5067800;28;20228;-72
2024/04/02 05:11:41;;;;;;;2.60;2.40;;;9.80;99.90;;;;;;5067870;28;20247;-72
2024/04/02 05:14:08;;;;;;;2.30;2.20;;;9.80;99.90;;;;;;5067518;28;20275;-72
2024/04/02 05:16:34;;;;;;;3.10;2.60;;;9.80;99.90;;;;;;5067576;28;20636;-72
2024/04/02 05:19:02;;;;;;;3.10;2.90;;;9.80;99.90;;;;;;5067298;28;20731;-72
2024/04/02 05:21:28;;;;;;;3.17;2.50;;;9.80;99.90;;;;;;5075663;28;20649;-72
2024/04/02 05:23:55;;;;;;;2.60;2.40;;;9.80;99.90;;;;;;5087764;28;20206;-72
2024/04/02 05:26:23;;;;;;;3.00;2.80;;;9.80;99.90;;;;;;5087355;28;20246;-72
2024/04/02 05:28:50;;;;;;;3.43;3.17;;;9.80;99.90;;;;;;5087275;28;20211;-72
2024/04/02 05:31:16;;;;;;;3.07;2.83;;;9.80;99.90;;;;;;5087641;28;20210;-72
2024/04/02 05:33:43;;;;;;;3.67;3.37;;;9.90;99.90;;;;;;5087166;28;20570;-72
2024/04/02 05:36:09;;;;;;;2.90;2.70;;;9.80;99.90;;;;;;5084720;28;20286;-72
2024/04/02 05:38:36;;;;;;;3.17;2.97;;;9.90;99.90;;;;;;5081160;28;20221;-72
2024/04/02 05:41:03;;;;;;;2.90;2.80;;;9.90;99.90;;;;;;5087036;28;20246;-73
2024/04/02 05:43:31;;;;;;;3.47;2.57;;;9.90;99.90;;;;;;5087058;28;20256;-72
2024/04/02 05:45:57;;;;;;;4.40;3.10;;;10.00;99.90;;;;;;5087085;28;20291;-73
2024/04/02 05:48:24;;;;;;;2.47;2.30;;;10.00;99.90;;;;;;5087158;28;20226;-72
2024/04/02 05:50:53;;;;;;;2.60;2.50;;;10.00;99.90;;;;;;5086775;28;20287;-72
2024/04/02 05:53:20;;;;;;;2.87;2.70;;;10.00;99.90;;;;;;5087193;28;20206;-72
2024/04/02 05:55:46;;;;;;;2.83;2.63;;;10.10;99.90;;;;;;5087488;28;20301;-72
2024/04/02 05:58:13;;;;;;;2.97;2.80;;;10.10;99.90;;;;;;5087502;28;20289;-72
2024/04/02 06:00:41;;;;;;;3.20;3.00;;;10.10;99.90;;;;;;5087194;28;20301;-72
2024/04/02 06:03:08;;;;;;;3.13;2.77;;;10.10;99.90;;;;;;5087032;28;20668;-72
2024/04/02 06:05:35;;;;;;;3.70;3.10;;;10.10;99.90;;;;;;5087079;28;21020;-72
2024/04/02 06:08:02;;;;;;;2.90;2.70;;;10.10;99.90;;;;;;5086997;28;20225;-72
2024/04/02 06:10:29;;;;;;;3.13;2.93;;;10.20;99.90;;;;;;5087013;28;20230;-72
2024/04/02 06:12:56;;;;;;;3.30;3.00;;;10.20;99.90;;;;;;5086802;28;20210;-72
2024/04/02 06:15:24;;;;;;;2.97;2.77;;;10.20;99.90;;;;;;5086977;28;20785;-72
2024/04/02 06:17:52;;;;;;;2.90;2.70;;;10.30;99.90;;;;;;5087219;28;20199;-72
2024/04/02 06:20:18;;;;;;;4.07;2.77;;;10.40;99.90;;;;;;5087265;28;20289;-72
2024/04/02 06:22:45;;;;;;;2.97;2.77;;;10.30;99.90;;;;;;5086558;28;20290;-72
2024/04/02 06:25:11;;;;;;;3.33;3.13;;;10.40;99.90;;;;;;5087154;28;20302;-71
2024/04/02 06:27:38;;;;;;;3.50;3.00;;;10.40;99.90;;;;;;5086949;28;20241;-72
2024/04/02 06:30:05;;;;;;;3.23;3.03;;;10.40;99.90;;;;;;5087015;28;20293;-72
2024/04/02 06:32:32;;;;;;;2.90;2.70;;;10.50;99.90;;;;;;5086527;28;20203;-72
2024/04/02 06:34:59;;;;;;;2.90;2.70;;;10.60;99.90;;;;;;5081163;28;20302;-72
2024/04/02 06:37:26;;;;;;;3.07;2.80;;;10.60;99.90;;;;;;5086824;28;20211;-72
2024/04/02 06:39:53;;;;;;;3.77;3.30;;;10.60;99.90;;;;;;5086780;28;20294;-72
2024/04/02 06:42:20;;;;;;;5.43;3.27;;;10.60;99.90;;;;;;5086594;28;20214;-72
2024/04/02 06:44:46;;;;;;;3.13;2.90;;;10.70;99.90;;;;;;5086444;28;20221;-71
2024/04/02 06:47:13;;;;;;;3.23;2.93;;;10.70;99.90;;;;;;5086417;28;20218;-72
2024/04/02 06:49:39;;;;;;;3.33;3.10;;;10.70;99.90;;;;;;5086652;28;20238;-71
2024/04/02 06:52:08;;;;;;;3.40;2.90;;;10.70;99.90;;;;;;5086269;28;20233;-71
2024/04/02 06:54:34;;;;;;;3.63;2.73;;;10.80;99.90;;;;;;5086253;28;20302;-72
2024/04/02 06:57:00;;;;;;;2.63;2.40;;;10.80;99.90;;;;;;5086587;28;20313;-72
2024/04/02 06:59:26;;;;;;;4.37;2.50;;;10.90;99.90;;;;;;5086631;28;20297;-72
2024/04/02 07:01:53;;;;;;;3.17;2.60;;;10.90;99.90;;;;;;5086268;28;20691;-72
2024/04/02 07:04:19;;;;;;;4.73;2.50;;;10.90;99.90;;;;;;5086154;28;20305;-72
2024/04/02 07:06:46;;;;;;;3.10;2.30;;;11.00;99.90;;;;;;5086231;28;20301;-72
2024/04/02 07:09:13;;;;;;;2.60;2.40;;;11.00;99.90;;;;;;5086397;28;21053;-72
2024/04/02 07:11:40;;;;;;;4.27;2.37;;;11.10;99.90;;;;;;5086545;28;20210;-72
2024/04/02 07:14:07;;;;;;;2.67;2.37;;;11.10;99.90;;;;;;5076479;28;20322;-72
2024/04/02 07:16:34;;;;;;;2.30;2.03;;;11.10;99.90;;;;;;5066629;28;20196;-72
2024/04/02 07:19:00;;;;;;;2.97;2.03;;;11.20;99.90;;;;;;5069647;28;20256;-71
2024/04/02 07:21:27;;;;;;;2.77;2.33;;;11.20;99.90;;;;;;5076725;28;20202;-71
2024/04/02 07:23:53;;;;;;;2.93;2.30;;;11.30;99.90;;;;;;5089673;28;20853;-72
2024/04/02 07:26:22;;;;;;;2.50;2.30;;;11.30;99.90;;;;;;5090006;28;20297;-72
2024/04/02 07:28:48;;;;;;;3.37;2.30;;;11.40;99.90;;;;;;5089565;28;20206;-72
2024/04/02 07:31:15;;;;;;;3.37;2.20;;;11.50;99.90;;;;;;5089254;28;20235;-72
2024/04/02 07:33:40;;;;;;;2.30;2.20;;;11.50;99.90;;;;;;5090055;28;20249;-72
2024/04/02 07:36:07;;;;;;;2.80;2.27;;;11.50;99.90;;;;;;5089070;28;20311;-71
2024/04/02 07:38:33;;;;;;;2.23;2.13;;;11.50;99.90;;;;;;5089899;28;20213;-72
2024/04/02 07:41:00;;;;;;;2.37;2.23;;;11.50;99.90;;;;;;5089356;28;20199;-72
2024/04/02 07:43:27;;;;;;;3.63;2.10;;;11.50;99.90;;;;;;5090034;28;20294;-72
2024/04/02 07:45:55;;;;;;;3.70;2.00;;;11.50;99.90;;;;;;5089609;28;20203;-72
2024/04/02 07:48:20;;;;;;;2.10;1.90;;;11.50;99.90;;;;;;5089512;28;20290;-72
2024/04/02 07:50:49;;;;;;;1.90;1.80;;;11.50;99.90;;;;;;5089035;28;20740;-72
2024/04/02 07:53:15;;;;;;;2.20;2.10;;;11.50;99.90;;;;;;5089323;28;20297;-72
2024/04/02 07:55:41;;;;;;;2.43;1.87;;;11.50;99.90;;;;;;5089498;28;20210;-72
2024/04/02 07:58:07;;;;;;;3.53;2.07;;;11.50;99.90;;;;;;5089342;28;20213;-72
2024/04/02 08:00:36;;;;;;;2.50;2.00;;;11.50;99.90;;;;;;5089266;28;20425;-72
2024/04/02 08:03:03;;;;;;;1.90;1.80;;;11.50;99.90;;;;;;5088865;28;20301;-72
2024/04/02 08:05:30;;;;;;;1.97;1.80;;;11.50;99.90;;;;;;5089341;28;20207;-72
2024/04/02 08:07:56;;;;;;;3.27;1.70;;;11.60;99.90;;;;;;5089158;28;20521;-72
2024/04/02 08:10:23;;;;;;;1.80;1.70;;;11.50;99.90;;;;;;5079406;28;20568;-71
2024/04/02 08:12:48;;;;;;;1.80;1.70;;;11.60;99.90;;;;;;5068760;28;20812;-72
2024/04/02 08:15:15;;;;;;;2.30;1.43;;;11.60;99.90;;;;;;5068357;28;20269;-71
2024/04/02 08:17:43;;;;;;;1.70;1.50;;;11.60;99.90;;;;;;5069004;28;20203;-72
2024/04/02 08:20:10;;;;;;;3.00;1.60;;;11.70;99.90;;;;;;5068467;28;20212;-72
2024/04/02 08:22:36;;;;;;;1.47;1.37;;;11.80;99.90;;;;;;5068369;28;20686;-71
2024/04/02 08:25:03;;;;;;;1.53;1.43;;;11.90;99.90;;;;;;5071357;28;20260;-72
2024/04/02 08:27:29;;;;;;;1.63;1.47;;;11.90;99.90;;;;;;5083643;28;20339;-72
2024/04/02 08:29:56;;;;;;;4.23;1.33;;;11.90;99.90;;;;;;5087593;28;20309;-71
2024/04/02 08:32:23;;;;;;;1.83;1.50;;;11.80;99.90;;;;;;5088650;28;20298;-72
2024/04/02 08:34:52;;;;;;;2.63;1.40;;;11.80;99.90;;;;;;5088394;28;20221;-72
2024/04/02 08:37:18;;;;;;;1.30;1.20;;;11.90;99.90;;;;;;5088270;28;20306;-72
2024/04/02 08:39:45;;;;;;;4.53;1.60;;;11.90;99.90;;;;;;5088136;28;20301;-72
2024/04/02 08:42:11;;;;;;;4.97;1.43;;;11.90;99.90;;;;;;5088387;28;20623;-72
2024/04/02 08:44:41;;;;;;;2.23;1.40;;;12.00;99.90;;;;;;5088168;28;20301;-71
2024/04/02 08:47:08;;;;;;;2.67;1.40;;;12.00;99.90;;;;;;5087971;28;20920;-72
2024/04/02 08:49:35;;;;;;;2.07;1.50;;;12.00;99.90;;;;;;5088407;28;20207;-72
2024/04/02 08:52:04;;;;;;;1.20;1.10;;;12.10;99.90;;;;;;5087978;28;20301;-72
2024/04/02 08:54:32;;;;;;;1.27;1.00;;;12.20;99.90;;;;;;5087840;28;20206;-72
2024/04/02 08:56:58;;;;;;;2.53;1.07;;;12.20;99.90;;;;;;5088327;28;20218;-72
2024/04/02 08:59:27;;;;;;;1.83;1.40;;;12.20;99.90;;;;;;5087654;28;20211;-72
2024/04/02 09:01:55;;;;;;;0.97;0.87;;;12.20;99.90;;;;;;5088064;28;20215;-72
2024/04/02 09:04:24;;;;;;;2.17;1.10;;;12.20;99.90;;;;;;5088157;28;20203;-72
2024/04/02 09:06:50;;;;;;;2.23;1.03;;;12.20;99.90;;;;;;5087369;28;20199;-71
2024/04/02 09:09:25;;;;;;;1.83;1.10;;;12.30;99.90;;;;;;5088067;28;20207;-71
2024/04/02 09:11:52;;;;;;;1.27;1.10;;;12.30;99.90;;;;;;5087590;28;20684;-70
2024/04/02 09:14:20;;;;;;;1.57;1.20;;;12.30;99.90;;;;;;5077418;28;20254;-72
2024/04/02 09:16:47;;;;;;;1.10;0.93;;;12.40;99.90;;;;;;5067670;28;20210;-72
2024/04/02 09:19:14;;;;;;;1.80;1.17;;;12.60;99.90;;;;;;5067544;28;20207;-71
2024/04/02 09:21:40;;;;;;;3.07;0.83;;;12.80;99.90;;;;;;5067164;28;20204;-72
2024/04/02 09:24:08;;;;;;;3.33;1.23;;;13.10;99.90;;;;;;5084146;28;20259;-71
2024/04/02 09:26:35;;;;;;;1.00;0.80;;;13.40;99.90;;;;;;5087851;28;20317;-71
2024/04/02 09:29:03;;;;;;;1.70;1.00;;;13.40;99.90;;;;;;5087633;28;20224;-73
2024/04/02 09:31:32;;;;;;;2.30;1.07;;;13.20;99.90;;;;;;5087612;28;20612;-73
2024/04/02 09:34:05;;;;;;;2.13;0.93;;;13.00;99.90;;;;;;5087346;28;20214;-71
2024/04/02 09:36:42;;;;;;;1.53;0.80;;;13.10;99.90;;;;;;5086913;28;20659;-71
2024/04/02 09:39:13;;;;;;;2.47;0.90;;;13.30;99.90;;;;;;5087445;28;20214;-71
2024/04/02 09:41:41;;;;;;;2.47;0.80;;;13.40;99.90;;;;;;5087385;28;20298;-71
2024/04/02 09:44:11;;;;;;;1.60;1.00;;;13.40;99.90;;;;;;5087331;28;20810;-71
2024/04/02 09:46:40;;;;;;;0.70;0.70;;;13.50;99.90;;;;;;5087131;28;20198;-72
2024/04/02 09:49:08;;;;;;;8.13;1.00;;;13.60;99.90;;;;;;5087294;28;20266;-72
2024/04/02 09:51:35;;;;;;;1.57;1.00;;;13.70;99.90;;;;;;5087218;28;20232;-72
2024/04/02 09:54:03;;;;;;;2.33;0.80;;;13.70;99.90;;;;;;5087039;28;20717;-72
2024/04/02 09:56:31;;;;;;;2.90;1.10;;;13.50;99.90;;;;;;5087314;28;20222;-72
2024/04/02 09:59:00;;;;;;;1.77;0.83;;;13.40;99.90;;;;;;5087159;28;20210;-72
2024/04/02 10:01:28;;;;;;;2.07;0.63;;;13.40;99.90;;;;;;5087163;28;20245;-71
2024/04/02 10:03:58;;;;;;;1.00;0.90;;;13.40;99.90;;;;;;5068840;28;20218;-72
2024/04/02 10:06:25;;;;;;;3.13;1.20;;;13.40;99.90;;;;;;5066735;28;20234;-71
2024/04/02 10:08:59;;;;;;;1.70;0.80;;;13.50;99.90;;;;;;5067063;28;20207;-72
2024/04/02 10:11:35;;;;;;;1.53;1.00;;;13.60;99.90;;;;;;5083759;28;20236;-71
2024/04/02 10:14:06;;;;;;;1.47;0.87;;;13.70;99.90;;;;;;5086657;28;20315;-72
2024/04/02 10:16:32;;;;;;;2.33;1.17;;;13.70;99.90;;;;;;5086880;28;20230;-71
2024/04/02 10:19:01;;;;;;;0.70;0.70;;;13.80;99.90;;;;;;5085068;28;20203;-72
2024/04/02 10:21:27;;;;;;;1.10;0.60;;;13.70;99.90;;;;;;5086407;28;20214;-72
2024/04/02 10:23:55;;;;;;;0.83;0.80;;;13.60;99.90;;;;;;5086547;28;20217;-72
2024/04/02 10:26:22;;;;;;;1.97;1.00;;;13.60;99.90;;;;;;5086943;28;20327;-72
2024/04/02 10:28:49;;;;;;;1.47;0.93;;;13.80;99.90;;;;;;5086931;28;20649;-72
2024/04/02 10:31:17;;;;;;;0.90;0.80;;;14.00;99.90;;;;;;5086460;28;20720;-72
2024/04/02 10:33:48;;;;;;;2.80;1.07;;;14.00;99.90;;;;;;5086500;28;20747;-72
2024/04/02 10:36:14;;;;;;;1.77;1.20;;;13.80;99.90;;;;;;5066167;28;20315;-72
2024/04/02 10:38:41;;;;;;;2.27;0.70;;;13.60;99.90;;;;;;5066487;28;20207;-72
2024/04/02 10:41:07;;;;;;;3.03;1.00;;;13.50;99.90;;;;;;5066794;28;20621;-72
2024/04/02 10:43:34;;;;;;;1.77;0.90;;;13.50;99.90;;;;;;5066808;28;20298;-72
2024/04/02 10:46:00;;;;;;;1.73;1.00;;;13.60;99.90;;;;;;5066391;28;20204;-72
2024/04/02 10:48:28;;;;;;;1.30;1.20;;;13.50;99.90;;;;;;5066652;28;20206;-72
2024/04/02 10:50:54;;;;;;;1.97;0.80;;;13.50;99.90;;;;;;5066280;28;20768;-72
2024/04/02 10:53:21;;;;;;;1.20;1.10;;;13.50;99.90;;;;;;5069829;28;20302;-72
2024/04/02 10:55:47;;;;;;;6.37;1.20;;;13.50;99.90;;;;;;5070618;28;20208;-73
2024/04/02 10:58:14;;;;;;;2.67;0.90;;;13.50;99.90;;;;;;5070228;28;20288;-72
2024/04/02 11:00:40;;;;;;;1.73;1.10;;;13.60;99.90;;;;;;5077431;28;20260;-72
2024/04/02 11:03:08;;;;;;;1.50;1.17;;;13.90;99.90;;;;;;5090178;28;20665;-72
2024/04/02 11:05:36;;;;;;;1.07;0.90;;;14.30;99.90;;;;;;5090707;28;20213;-72
2024/04/02 11:08:03;;;;;;;2.27;1.00;;;14.40;99.90;;;;;;5069836;28;20967;-72
2024/04/02 11:10:29;;;;;;;2.10;1.07;;;14.40;99.90;;;;;;5069919;28;20246;-72
2024/04/02 11:12:56;;;;;;;1.47;0.93;;;14.30;99.90;;;;;;5070056;28;20207;-72
2024/04/02 11:15:22;;;;;;;3.77;1.30;;;14.20;99.90;;;;;;5075741;28;20321;-72
2024/04/02 11:17:48;;;;;;;3.10;1.17;;;14.00;99.90;;;;;;5090293;28;20209;-72
2024/04/02 11:20:14;;;;;;;2.20;1.07;;;13.90;99.90;;;;;;5090159;28;20704;-72
2024/04/02 11:25:27;;;;;;;1.90;1.23;;;13.80;99.90;;;;;;5089987;28;20189;-72
2024/04/02 11:28:04;;;;;;;3.33;1.17;;;13.70;99.90;;;;;;5090090;28;20262;-72
2024/04/02 11:30:31;;;;;;;2.77;1.13;;;13.70;99.90;;;;;;5089640;28;20224;-71
2024/04/02 11:32:57;;;;;;;3.87;1.07;;;13.60;99.90;;;;;;5089986;28;20290;-71
2024/04/02 11:35:24;;;;;;;2.13;1.10;;;13.60;99.90;;;;;;5089714;28;20289;-71
2024/04/02 11:37:51;;;;;;;2.60;1.20;;;13.70;99.90;;;;;;5089784;28;20211;-71
2024/04/02 11:40:18;;;;;;;1.00;0.90;;;13.80;99.90;;;;;;5089615;28;20199;-71
2024/04/02 11:42:44;;;;;;;1.33;0.90;;;14.00;99.90;;;;;;5089955;28;20272;-72
2024/04/02 11:45:11;;;;;;;5.23;1.07;;;14.00;99.90;;;;;;5089615;28;20202;-71
2024/04/02 11:47:38;;;;;;;3.33;1.17;;;14.00;99.90;;;;;;5089640;28;20293;-72
2024/04/02 11:50:05;;;;;;;1.50;1.13;;;13.90;99.90;;;;;;5089483;28;20301;-71
2024/04/02 11:52:33;;;;;;;4.07;1.40;;;13.90;99.90;;;;;;5089023;28;20321;-72
2024/04/02 11:55:02;;;;;;;2.33;1.20;;;13.80;99.90;;;;;;5089089;28;20653;-72
2024/04/02 12:00:16;;;;;;;2.50;1.13;;;13.90;99.90;;;;;;5089166;28;20671;-72
2024/04/02 12:02:45;;;;;;;1.37;0.90;;;14.40;99.90;;;;;;5089182;28;20308;-72
2024/04/02 12:05:12;;;;;;;2.73;1.03;;;14.60;99.90;;;;;;5089415;28;20289;-72
2024/04/02 12:07:39;;;;;;;6.33;1.10;;;14.50;99.90;;;;;;5089198;28;20365;-72
2024/04/02 12:10:09;;;;;;;2.20;1.10;;;14.30;99.90;;;;;;5088201;28;20282;-72
2024/04/02 12:12:35;;;;;;;3.07;1.00;;;14.00;99.90;;;;;;5071877;28;20314;-72
2024/04/02 12:15:03;;;;;;;2.30;1.40;;;13.90;99.90;;;;;;5068372;28;20227;-72
2024/04/02 12:17:30;;;;;;;3.33;1.20;;;13.70;99.90;;;;;;5068642;28;20216;-72
2024/04/02 12:19:57;;;;;;;1.93;1.47;;;13.20;99.90;;;;;;5068813;28;20202;-72
2024/04/02 12:22:26;;;;;;;2.07;1.53;;;13.00;99.90;;;;;;5068587;28;20272;-72
2024/04/02 12:24:52;;;;;;;4.73;1.40;;;13.00;99.90;;;;;;5067976;28;20856;-73
2024/04/02 12:27:21;;;;;;;2.40;1.30;;;12.80;99.90;;;;;;5068575;28;20230;-73
2024/04/02 12:29:53;;;;;;;1.73;1.43;;;12.90;99.90;;;;;;5068055;28;20299;-73
2024/04/02 12:32:20;;;;;;;1.80;1.40;;;12.90;99.90;;;;;;5068306;28;21080;-72
2024/04/02 12:34:46;;;;;;;1.87;1.40;;;13.00;99.90;;;;;;5068313;28;20235;-72
2024/04/02 12:37:14;;;;;;;3.00;1.57;;;13.20;99.90;;;;;;5067893;28;20199;-73
2024/04/02 12:39:43;;;;;;;1.97;1.50;;;13.70;99.90;;;;;;5068370;28;20298;-73
2024/04/02 12:42:10;;;;;;;1.93;1.37;;;14.30;99.90;;;;;;5068246;28;20286;-73
2024/04/02 12:44:40;;;;;;;2.03;1.40;;;14.40;99.90;;;;;;5068140;28;20234;-73
2024/04/02 12:47:07;;;;;;;3.17;1.00;;;14.40;99.90;;;;;;5067726;28;20212;-73
2024/04/02 12:49:33;;;;;;;3.03;1.43;;;14.20;99.90;;;;;;5068099;28;20305;-73
2024/04/02 12:52:00;;;;;;;3.20;1.27;;;14.10;99.90;;;;;;5067342;28;21072;-73
2024/04/02 12:54:25;;;;;;;16.30;1.73;;;14.10;99.90;;;;;;5067880;28;20677;-73